createdAt,value
2017-06-28T00:01:13.210Z,15.68
2017-06-28T00:02:35.707Z,15.68
2017-06-28T00:03:57.862Z,15.6
2017-06-28T00:05:19.364Z,15.72
2017-06-28T00:06:42.216Z,15.75
2017-06-28T00:08:03.715Z,15.69
2017-06-28T00:09:26.161Z,15.68
2017-06-28T00:10:48.278Z,15.78
2017-06-28T00:12:10.501Z,15.62
2017-06-28T00:13:32.101Z,15.68
2017-06-28T00:14:53.929Z,15.69
2017-06-28T00:16:15.757Z,15.69
2017-06-28T00:17:38.517Z,15.72
2017-06-28T00:19:00.640Z,15.71
2017-06-28T00:20:22.177Z,15.71
2017-06-28T00:21:43.974Z,15.67
2017-06-28T00:23:06.616Z,15.76
2017-06-28T00:24:29.065Z,15.72
2017-06-28T00:25:50.969Z,15.69
2017-06-28T00:27:13.424Z,15.69
2017-06-28T00:28:34.931Z,15.83
2017-06-28T00:29:56.755Z,15.82
2017-06-28T00:31:18.884Z,15.76
2017-06-28T00:32:40.374Z,15.8
2017-06-28T00:34:03.111Z,15.8
2017-06-28T00:35:24.914Z,15.82
2017-06-28T00:36:46.728Z,15.8
2017-06-28T00:38:08.862Z,15.8
2017-06-28T00:39:30.363Z,15.8
2017-06-28T00:40:52.164Z,15.75
2017-06-28T00:42:13.963Z,15.76
2017-06-28T00:43:35.453Z,15.75
2017-06-28T00:44:58.024Z,15.71
2017-06-28T00:46:20.212Z,15.75
2017-06-28T00:47:41.874Z,15.72
2017-06-28T00:49:03.683Z,15.72
2017-06-28T00:50:26.174Z,15.74
2017-06-28T00:51:48.620Z,15.72
2017-06-28T00:53:10.756Z,15.82
2017-06-28T00:54:32.679Z,15.72
2017-06-28T00:55:54.830Z,15.71
2017-06-28T00:57:16.971Z,15.71
2017-06-28T00:58:38.789Z,15.72
2017-06-28T01:00:00.422Z,15.76
2017-06-28T01:01:21.889Z,15.8
2017-06-28T01:02:44.010Z,15.69
2017-06-28T01:04:06.499Z,15.72
2017-06-28T01:05:28.627Z,15.72
2017-06-28T01:06:51.374Z,15.78
2017-06-28T01:08:13.335Z,15.72
2017-06-28T01:09:35.195Z,15.71
2017-06-28T01:10:57.012Z,15.76
2017-06-28T01:12:19.478Z,15.75
2017-06-28T01:13:41.011Z,15.69
2017-06-28T01:15:03.617Z,15.83
2017-06-28T01:16:25.876Z,15.72
2017-06-28T01:17:48.688Z,15.69
2017-06-28T01:19:10.800Z,15.78
2017-06-28T01:20:32.465Z,15.78
2017-06-28T01:21:54.298Z,15.71
2017-06-28T01:23:16.714Z,15.71
2017-06-28T01:24:38.963Z,15.72
2017-06-28T01:26:01.399Z,15.72
2017-06-28T01:27:22.917Z,15.68
2017-06-28T01:28:45.100Z,15.74
2017-06-28T01:30:07.255Z,15.71
2017-06-28T01:31:29.178Z,15.65
2017-06-28T01:32:51.324Z,15.68
2017-06-28T01:34:12.865Z,15.67
2017-06-28T01:35:35.303Z,15.62
2017-06-28T01:36:57.116Z,15.68
2017-06-28T01:38:18.986Z,15.68
2017-06-28T01:39:41.442Z,15.59
2017-06-28T01:41:03.333Z,15.56
2017-06-28T01:42:25.464Z,15.57
2017-06-28T01:43:47.582Z,15.51
2017-06-28T01:45:10.356Z,15.6
2017-06-28T01:46:32.493Z,15.56
2017-06-28T01:47:54.626Z,15.57
2017-06-28T01:49:17.082Z,15.56
2017-06-28T01:50:39.331Z,15.5
2017-06-28T01:52:01.143Z,15.62
2017-06-28T01:53:23.342Z,15.53
2017-06-28T01:54:44.531Z,15.57
2017-06-28T01:56:07.025Z,15.56
2017-06-28T01:57:29.146Z,15.54
2017-06-28T01:58:51.291Z,15.57
2017-06-28T02:00:12.836Z,15.64
2017-06-28T02:01:35.377Z,15.57
2017-06-28T02:02:57.187Z,15.65
2017-06-28T02:04:19.009Z,15.62
2017-06-28T02:05:41.145Z,15.65
2017-06-28T02:07:03.272Z,15.65
2017-06-28T02:08:25.086Z,15.74
2017-06-28T02:09:47.000Z,15.67
2017-06-28T02:11:09.159Z,15.71
2017-06-28T02:12:31.578Z,15.68
2017-06-28T02:13:53.392Z,15.69
2017-06-28T02:15:15.860Z,15.67
2017-06-28T02:16:37.366Z,15.64
2017-06-28T02:17:59.595Z,15.69
2017-06-28T02:19:21.769Z,15.64
2017-06-28T02:20:43.306Z,15.54
2017-06-28T02:22:05.155Z,15.65
2017-06-28T02:23:27.694Z,15.68
2017-06-28T02:24:49.814Z,15.56
2017-06-28T02:26:12.115Z,15.56
2017-06-28T02:27:33.940Z,15.49
2017-06-28T02:28:56.089Z,15.54
2017-06-28T02:30:17.581Z,15.54
2017-06-28T02:31:39.414Z,15.57
2017-06-28T02:33:01.546Z,15.5
2017-06-28T02:34:23.720Z,15.54
2017-06-28T02:35:45.994Z,15.57
2017-06-28T02:37:07.831Z,15.51
2017-06-28T02:38:29.654Z,15.47
2017-06-28T02:39:52.475Z,15.56
2017-06-28T02:41:14.096Z,15.6
2017-06-28T02:42:35.623Z,15.53
2017-06-28T02:43:58.193Z,15.54
2017-06-28T02:45:20.356Z,15.59
2017-06-28T02:46:42.272Z,15.54
2017-06-28T02:48:04.716Z,15.56
2017-06-28T02:49:26.528Z,15.54
2017-06-28T02:50:49.325Z,15.59
2017-06-28T02:52:11.755Z,15.57
2017-06-28T02:53:33.894Z,15.6
2017-06-28T02:54:55.799Z,15.6
2017-06-28T02:56:18.255Z,15.53
2017-06-28T02:57:40.389Z,15.62
2017-06-28T02:59:02.803Z,15.53
2017-06-28T03:00:25.001Z,15.65
2017-06-28T03:01:47.310Z,15.54
2017-06-28T03:03:08.616Z,15.64
2017-06-28T03:04:30.735Z,15.62
2017-06-28T03:05:53.171Z,15.64
2017-06-28T03:07:15.586Z,15.64
2017-06-28T03:08:37.766Z,15.64
2017-06-28T03:09:59.652Z,15.64
2017-06-28T03:11:21.565Z,15.65
2017-06-28T03:12:43.095Z,15.67
2017-06-28T03:14:04.905Z,15.64
2017-06-28T03:15:26.723Z,15.56
2017-06-28T03:16:48.843Z,15.59
2017-06-28T03:18:11.314Z,15.56
2017-06-28T03:19:32.511Z,15.57
2017-06-28T03:20:54.640Z,15.56
2017-06-28T03:22:16.483Z,15.57
2017-06-28T03:23:38.907Z,15.56
2017-06-28T03:25:01.451Z,15.53
2017-06-28T03:26:23.755Z,15.54
2017-06-28T03:27:45.903Z,15.57
2017-06-28T03:29:08.864Z,15.53
2017-06-28T03:30:31.010Z,15.6
2017-06-28T03:31:52.502Z,15.62
2017-06-28T03:33:14.637Z,15.65
2017-06-28T03:34:36.512Z,15.62
2017-06-28T03:35:58.702Z,15.71
2017-06-28T03:37:20.829Z,15.67
2017-06-28T03:38:42.642Z,15.64
2017-06-28T03:40:05.224Z,15.67
2017-06-28T03:41:27.176Z,15.71
2017-06-28T03:42:48.998Z,15.76
2017-06-28T03:44:10.192Z,15.71
2017-06-28T03:45:32.625Z,15.86
2017-06-28T03:46:54.655Z,15.84
2017-06-28T03:48:16.864Z,15.89
2017-06-28T03:49:38.997Z,15.9
2017-06-28T03:51:01.436Z,15.94
2017-06-28T03:52:23.984Z,15.93
2017-06-28T03:53:46.110Z,15.89
2017-06-28T03:55:08.715Z,15.96
2017-06-28T03:56:30.520Z,15.93
2017-06-28T03:57:52.031Z,15.97
2017-06-28T03:59:13.521Z,15.96
2017-06-28T04:00:35.651Z,16
2017-06-28T04:01:57.496Z,16.05
2017-06-28T04:03:19.015Z,16.02
2017-06-28T04:04:40.641Z,16.04
2017-06-28T04:06:02.543Z,16.07
2017-06-28T04:07:24.794Z,16.11
2017-06-28T04:08:46.989Z,16.11
2017-06-28T04:10:09.439Z,16.21
2017-06-28T04:11:31.566Z,16.17
2017-06-28T04:12:54.363Z,16.23
2017-06-28T04:14:16.522Z,16.31
2017-06-28T04:15:38.335Z,16.3
2017-06-28T04:17:00.495Z,16.35
2017-06-28T04:18:22.655Z,16.28
2017-06-28T04:19:45.112Z,16.31
2017-06-28T04:21:07.635Z,16.27
2017-06-28T04:22:29.132Z,16.3
2017-06-28T04:23:51.624Z,16.31
2017-06-28T04:25:13.746Z,16.28
2017-06-28T04:26:35.575Z,16.28
2017-06-28T04:27:57.825Z,16.35
2017-06-28T04:29:20.638Z,16.42
2017-06-28T04:30:42.455Z,16.39
2017-06-28T04:32:04.942Z,16.41
2017-06-28T04:33:27.055Z,16.43
2017-06-28T04:34:49.185Z,16.38
2017-06-28T04:36:10.993Z,16.45
2017-06-28T04:37:33.215Z,16.45
2017-06-28T04:38:55.332Z,16.52
2017-06-28T04:40:17.800Z,16.52
2017-06-28T04:41:40.313Z,16.63
2017-06-28T04:43:02.462Z,16.67
2017-06-28T04:44:24.265Z,16.73
2017-06-28T04:45:46.114Z,16.79
2017-06-28T04:47:07.951Z,16.86
2017-06-28T04:48:29.746Z,16.97
2017-06-28T04:49:52.224Z,16.96
2017-06-28T04:51:14.106Z,17
2017-06-28T04:52:36.225Z,17.18
2017-06-28T04:53:58.657Z,17.11
2017-06-28T04:55:20.785Z,17.11
2017-06-28T04:56:43.239Z,17.08
2017-06-28T04:58:05.379Z,17.07
2017-06-28T04:59:27.204Z,17.08
2017-06-28T05:00:48.993Z,17.06
2017-06-28T05:02:11.215Z,17.04
2017-06-28T05:03:33.159Z,17.12
2017-06-28T05:04:55.331Z,17.18
2017-06-28T05:06:17.456Z,17.19
2017-06-28T05:07:39.942Z,17.25
2017-06-28T05:09:02.436Z,17.3
2017-06-28T05:10:24.602Z,17.31
2017-06-28T05:11:46.445Z,17.23
2017-06-28T05:13:08.736Z,17.34
2017-06-28T05:14:30.544Z,17.36
2017-06-28T05:15:52.614Z,17.33
2017-06-28T05:17:14.105Z,17.44
2017-06-28T05:18:36.602Z,17.46
2017-06-28T05:19:58.957Z,17.48
2017-06-28T05:21:21.086Z,17.55
2017-06-28T05:22:43.744Z,17.54
2017-06-28T05:24:05.852Z,17.51
2017-06-28T05:25:27.997Z,17.55
2017-06-28T05:26:49.808Z,17.54
2017-06-28T05:28:11.931Z,17.52
2017-06-28T05:29:34.012Z,17.55
2017-06-28T05:30:56.464Z,17.56
2017-06-28T05:32:18.714Z,17.55
2017-06-28T05:33:40.574Z,17.58
2017-06-28T05:35:02.746Z,17.62
2017-06-28T05:36:23.943Z,17.71
2017-06-28T05:37:46.443Z,17.71
2017-06-28T05:39:08.726Z,17.81
2017-06-28T05:40:30.881Z,17.87
2017-06-28T05:41:52.381Z,17.95
2017-06-28T05:43:14.519Z,18.14
2017-06-28T05:44:36.384Z,18.21
2017-06-28T05:45:58.940Z,18.52
2017-06-28T05:47:20.753Z,18.8
2017-06-28T05:48:42.938Z,19.31
2017-06-28T05:50:05.054Z,19.68
2017-06-28T05:51:26.913Z,19.73
2017-06-28T05:52:48.738Z,19.63
2017-06-28T05:54:10.574Z,19.66
2017-06-28T05:55:32.164Z,19.63
2017-06-28T05:56:54.348Z,19.76
2017-06-28T05:58:16.491Z,19.63
2017-06-28T05:59:38.047Z,19.46
2017-06-28T06:00:59.540Z,19.58
2017-06-28T06:02:21.975Z,19.55
2017-06-28T06:03:44.417Z,19.62
2017-06-28T06:05:06.570Z,19.71
2017-06-28T06:06:28.380Z,19.76
2017-06-28T06:07:50.589Z,19.81
2017-06-28T06:09:12.750Z,19.59
2017-06-28T06:10:34.576Z,19.54
2017-06-28T06:11:56.733Z,19.31
2017-06-28T06:13:19.202Z,19.4
2017-06-28T06:14:41.344Z,19.46
2017-06-28T06:16:03.802Z,19.46
2017-06-28T06:17:25.646Z,19.55
2017-06-28T06:18:48.394Z,19.76
2017-06-28T06:20:10.856Z,19.96
2017-06-28T06:21:33.000Z,20.02
2017-06-28T06:22:55.133Z,20.33
2017-06-28T06:24:17.940Z,22.61
2017-06-28T06:25:40.111Z,23.35
2017-06-28T06:27:02.557Z,24.71
2017-06-28T06:28:24.747Z,24.64
2017-06-28T06:29:47.533Z,24.39
2017-06-28T06:31:10.036Z,24.21
2017-06-28T06:32:31.874Z,24.32
2017-06-28T06:33:54.095Z,23.73
2017-06-28T06:35:16.595Z,24.37
2017-06-28T06:36:38.444Z,26.35
2017-06-28T06:38:00.253Z,27.37
2017-06-28T06:39:22.404Z,28.24
2017-06-28T06:40:44.723Z,28.71
2017-06-28T06:42:06.873Z,29.28
2017-06-28T06:43:28.746Z,30.04
2017-06-28T06:44:51.064Z,30.39
2017-06-28T06:46:13.281Z,31.07
2017-06-28T06:47:35.761Z,29.89
2017-06-28T06:48:58.054Z,29.89
2017-06-28T06:50:19.561Z,29.45
2017-06-28T06:51:42.383Z,29.53
2017-06-28T06:53:04.524Z,30.24
2017-06-28T06:54:26.372Z,28.59
2017-06-28T06:55:49.007Z,28.76
2017-06-28T06:57:11.722Z,28.8
2017-06-28T06:58:33.564Z,28.93
2017-06-28T07:02:53.380Z,30.54
2017-06-28T07:04:15.529Z,31.5
2017-06-28T07:05:37.353Z,30.91
2017-06-28T07:09:54.014Z,29.97
2017-06-28T07:11:16.483Z,29.98
2017-06-28T07:12:38.619Z,28.43
2017-06-28T07:14:00.712Z,28.02
2017-06-28T07:15:22.615Z,28.4
2017-06-28T07:16:44.759Z,28.41
2017-06-28T07:18:07.275Z,27.94
2017-06-28T07:19:29.989Z,27.94
2017-06-28T07:20:51.818Z,27.36
2017-06-28T07:22:14.014Z,27.06
2017-06-28T07:23:35.550Z,26.72
2017-06-28T07:24:57.741Z,26.55
2017-06-28T07:26:20.271Z,26.21
2017-06-28T07:27:42.475Z,26.32
2017-06-28T07:29:04.725Z,26.67
2017-06-28T07:30:27.282Z,26.06
2017-06-28T07:31:49.254Z,25.83
2017-06-28T07:33:11.415Z,25.98
2017-06-28T07:34:33.892Z,26.33
2017-06-28T07:35:55.709Z,25.88
2017-06-28T07:37:17.865Z,25.42
2017-06-28T07:38:40.324Z,25.2
2017-06-28T07:40:02.269Z,25.5
2017-06-28T07:41:24.123Z,26.33
2017-06-28T07:42:46.409Z,27
2017-06-28T07:44:08.575Z,27.34
2017-06-28T07:45:31.143Z,27.39
2017-06-28T07:46:53.964Z,26.6
2017-06-28T07:48:15.813Z,25.7
2017-06-28T07:49:37.648Z,26.12
2017-06-28T07:50:59.796Z,26.28
2017-06-28T07:52:21.988Z,26.02
2017-06-28T07:53:43.520Z,26.02
2017-06-28T07:55:06.002Z,26.32
2017-06-28T07:56:27.885Z,26.48
2017-06-28T07:57:50.089Z,26.51
2017-06-28T07:59:11.943Z,27.62
2017-06-28T08:00:34.083Z,28.9
2017-06-28T08:01:55.315Z,28.36
2017-06-28T08:03:17.773Z,27.24
2017-06-28T08:04:39.693Z,26.82
2017-06-28T08:06:02.246Z,26.13
2017-06-28T08:07:24.390Z,25.76
2017-06-28T08:08:46.952Z,25.24
2017-06-28T08:10:09.415Z,24.99
2017-06-28T08:11:31.279Z,24.84
2017-06-28T08:12:53.545Z,24.58
2017-06-28T08:14:15.983Z,24.35
2017-06-28T08:15:37.824Z,24.28
2017-06-28T08:16:59.969Z,24.05
2017-06-28T08:18:22.573Z,23.93
2017-06-28T08:19:45.303Z,23.78
2017-06-28T08:21:07.159Z,23.93
2017-06-28T08:22:29.316Z,23.95
2017-06-28T08:23:51.614Z,23.84
2017-06-28T08:25:14.109Z,24.1
2017-06-28T08:26:36.280Z,24.13
2017-06-28T08:27:58.736Z,24.27
2017-06-28T08:29:21.022Z,24.15
2017-06-28T08:30:43.849Z,24.15
2017-06-28T08:32:05.977Z,24.1
2017-06-28T08:33:27.499Z,24.25
2017-06-28T08:34:49.329Z,24.28
2017-06-28T08:36:11.404Z,24.27
2017-06-28T08:37:33.301Z,24.24
2017-06-28T08:38:55.504Z,24.28
2017-06-28T08:40:17.367Z,24.34
2017-06-28T08:41:39.593Z,24.47
2017-06-28T08:43:01.735Z,24.69
2017-06-28T08:44:23.564Z,24.8
2017-06-28T08:45:45.771Z,24.73
2017-06-28T08:47:08.650Z,24.5
2017-06-28T08:48:30.184Z,24.4
2017-06-28T08:49:52.343Z,24.34
2017-06-28T08:51:14.162Z,24.31
2017-06-28T08:52:36.607Z,24.55
2017-06-28T08:53:58.444Z,24.84
2017-06-28T08:55:20.641Z,25.15
2017-06-28T08:56:42.492Z,24.98
2017-06-28T08:58:04.927Z,25.23
2017-06-28T08:59:27.091Z,25.5
2017-06-28T09:00:48.601Z,25.87
2017-06-28T09:02:10.742Z,25.94
2017-06-28T09:03:32.825Z,26.17
2017-06-28T09:04:54.952Z,26.45
2017-06-28T09:06:17.151Z,26.81
2017-06-28T09:07:39.307Z,26.85
2017-06-28T09:09:01.804Z,26.23
2017-06-28T09:10:24.266Z,26.01
2017-06-28T09:11:46.513Z,26.28
2017-06-28T09:13:08.653Z,25.94
2017-06-28T09:14:31.570Z,25.9
2017-06-28T09:15:53.421Z,25.88
2017-06-28T09:17:15.636Z,25.9
2017-06-28T09:18:38.093Z,25.45
2017-06-28T09:19:59.976Z,25.54
2017-06-28T09:21:21.553Z,25.39
2017-06-28T09:22:44.025Z,25.45
2017-06-28T09:24:06.205Z,25.65
2017-06-28T09:25:29.022Z,25.75
2017-06-28T09:26:51.543Z,25.83
2017-06-28T09:28:13.420Z,25.85
2017-06-28T09:29:35.594Z,25.95
2017-06-28T09:30:58.367Z,25.73
2017-06-28T09:32:20.584Z,25.6
2017-06-28T09:33:42.763Z,25.39
2017-06-28T09:35:04.971Z,25.1
2017-06-28T09:36:27.443Z,25.09
2017-06-28T09:37:49.300Z,25.13
2017-06-28T09:39:11.447Z,25.3
2017-06-28T09:40:33.644Z,25.2
2017-06-28T09:41:55.732Z,25.05
2017-06-28T09:43:18.303Z,24.73
2017-06-28T09:44:40.494Z,24.8
2017-06-28T09:46:02.652Z,24.91
2017-06-28T09:47:25.111Z,24.83
2017-06-28T09:48:46.932Z,24.85
2017-06-28T09:50:08.800Z,24.78
2017-06-28T09:51:30.951Z,25.08
2017-06-28T09:52:53.333Z,25.14
2017-06-28T09:54:15.831Z,25.17
2017-06-28T09:55:37.679Z,25.2
2017-06-28T09:56:59.529Z,25.25
2017-06-28T09:58:22.328Z,25.27
2017-06-28T09:59:44.583Z,25.23
2017-06-28T10:01:07.049Z,25.17
2017-06-28T10:02:29.743Z,25.35
2017-06-28T10:03:52.253Z,25.43
2017-06-28T10:05:14.417Z,25.4
2017-06-28T10:06:35.651Z,25.4
2017-06-28T10:07:57.277Z,25.35
2017-06-28T10:09:19.252Z,25.23
2017-06-28T10:10:41.527Z,25.13
2017-06-28T10:12:03.430Z,25.09
2017-06-28T10:13:25.392Z,25.09
2017-06-28T10:14:47.741Z,24.96
2017-06-28T10:16:09.553Z,24.88
2017-06-28T10:17:32.072Z,24.81
2017-06-28T10:18:54.225Z,24.8
2017-06-28T10:20:16.393Z,24.81
2017-06-28T10:21:38.234Z,24.83
2017-06-28T10:23:00.381Z,24.69
2017-06-28T10:24:22.521Z,24.58
2017-06-28T10:25:45.322Z,24.57
2017-06-28T10:27:07.808Z,24.52
2017-06-28T10:28:30.116Z,24.77
2017-06-28T10:29:52.253Z,24.81
2017-06-28T10:31:15.074Z,24.81
2017-06-28T10:32:35.970Z,24.85
2017-06-28T10:33:57.797Z,24.98
2017-06-28T10:35:18.996Z,25.15
2017-06-28T10:36:41.752Z,25.14
2017-06-28T10:38:04.220Z,25.13
2017-06-28T10:39:26.354Z,25.17
2017-06-28T10:40:48.503Z,25.14
2017-06-28T10:42:11.193Z,24.96
2017-06-28T10:43:33.118Z,24.85
2017-06-28T10:44:55.582Z,24.81
2017-06-28T10:46:17.200Z,24.78
2017-06-28T10:47:39.407Z,24.62
2017-06-28T10:49:00.657Z,24.73
2017-06-28T10:50:23.129Z,24.87
2017-06-28T10:51:45.103Z,25.05
2017-06-28T10:53:07.583Z,25.1
2017-06-28T10:54:29.409Z,25.17
2017-06-28T10:55:50.984Z,25.13
2017-06-28T10:57:13.454Z,25.1
2017-06-28T10:58:35.965Z,25.2
2017-06-28T10:59:58.123Z,25.45
2017-06-28T11:01:19.975Z,25.52
2017-06-28T11:02:41.809Z,25.52
2017-06-28T11:04:04.301Z,25.47
2017-06-28T11:05:26.133Z,25.4
2017-06-28T11:06:47.952Z,25.36
2017-06-28T11:08:10.514Z,25.24
2017-06-28T11:09:32.633Z,25.09
2017-06-28T11:10:54.773Z,25.14
2017-06-28T11:12:17.264Z,25.1
2017-06-28T11:13:39.724Z,25.08
2017-06-28T11:15:02.674Z,24.99
2017-06-28T11:16:24.822Z,24.96
2017-06-28T11:17:46.960Z,24.98
2017-06-28T11:19:09.474Z,24.96
2017-06-28T11:20:32.243Z,24.96
2017-06-28T11:21:54.771Z,24.88
2017-06-28T11:23:17.230Z,24.84
2017-06-28T11:24:39.685Z,24.95
2017-06-28T11:26:02.639Z,25.13
2017-06-28T11:27:24.803Z,24.88
2017-06-28T11:28:46.632Z,24.73
2017-06-28T11:30:08.894Z,24.6
2017-06-28T11:31:31.757Z,24.5
2017-06-28T11:32:53.651Z,24.39
2017-06-28T11:34:16.123Z,24.32
2017-06-28T11:35:38.583Z,24.21
2017-06-28T11:37:01.422Z,23.9
2017-06-28T11:38:23.561Z,23.94
2017-06-28T11:39:46.034Z,23.83
2017-06-28T11:41:08.190Z,23.54
2017-06-28T11:42:30.318Z,23.32
2017-06-28T11:43:52.493Z,23.27
2017-06-28T11:45:14.323Z,23.01
2017-06-28T11:46:36.477Z,22.73
2017-06-28T11:47:59.212Z,22.7
2017-06-28T11:49:21.032Z,22.61
2017-06-28T11:50:42.676Z,22.67
2017-06-28T11:52:05.164Z,22.54
2017-06-28T11:53:27.429Z,22.57
2017-06-28T11:54:49.580Z,22.64
2017-06-28T11:56:12.055Z,22.65
2017-06-28T11:57:34.545Z,22.6
2017-06-28T11:58:56.636Z,22.79
2017-06-28T12:00:18.838Z,22.77
2017-06-28T12:01:40.486Z,22.75
2017-06-28T12:03:03.107Z,22.68
2017-06-28T12:04:25.863Z,22.68
2017-06-28T12:05:47.706Z,22.65
2017-06-28T12:07:09.917Z,22.61
2017-06-28T12:08:31.738Z,22.6
2017-06-28T12:09:54.533Z,22.7
2017-06-28T12:11:16.995Z,22.6
2017-06-28T12:12:39.272Z,22.57
2017-06-28T12:14:01.164Z,22.49
2017-06-28T12:15:23.023Z,22.54
2017-06-28T12:16:45.271Z,22.52
2017-06-28T12:18:07.430Z,22.43
2017-06-28T12:19:29.810Z,22.31
2017-06-28T12:20:52.312Z,22.36
2017-06-28T12:22:14.456Z,22.42
2017-06-28T12:23:36.496Z,22.27
2017-06-28T12:24:58.400Z,22.2
2017-06-28T12:26:20.511Z,22.21
2017-06-28T12:27:42.443Z,22.22
2017-06-28T12:29:04.587Z,22.31
2017-06-28T12:30:26.753Z,22.25
2017-06-28T12:31:49.154Z,22.33
2017-06-28T12:33:11.787Z,22.31
2017-06-28T12:34:34.253Z,22.49
2017-06-28T12:35:56.083Z,22.62
2017-06-28T12:37:18.215Z,22.72
2017-06-28T12:38:40.383Z,22.7
2017-06-28T12:40:02.214Z,22.67
2017-06-28T12:41:24.792Z,22.62
2017-06-28T12:42:47.237Z,22.52
2017-06-28T12:44:08.443Z,22.43
2017-06-28T12:45:30.322Z,22.33
2017-06-28T12:46:52.568Z,22.17
2017-06-28T12:48:15.377Z,22.18
2017-06-28T12:49:37.533Z,22.2
2017-06-28T12:50:59.382Z,22.2
2017-06-28T12:52:21.584Z,22.2
2017-06-28T12:53:44.000Z,22.21
2017-06-28T12:55:06.151Z,22.22
2017-06-28T12:56:28.611Z,22.24
2017-06-28T12:57:50.882Z,22.27
2017-06-28T12:59:13.425Z,22.36
2017-06-28T13:00:34.633Z,22.45
2017-06-28T13:01:57.171Z,22.47
2017-06-28T13:03:19.320Z,22.58
2017-06-28T13:04:41.803Z,22.62
2017-06-28T13:06:03.634Z,22.7
2017-06-28T13:07:26.125Z,22.72
2017-06-28T13:08:48.701Z,22.79
2017-06-28T13:10:11.403Z,22.77
2017-06-28T13:11:33.870Z,22.9
2017-06-28T13:12:55.829Z,22.83
2017-06-28T13:14:17.972Z,22.72
2017-06-28T13:15:39.747Z,22.8
2017-06-28T13:17:02.104Z,22.82
2017-06-28T13:18:24.277Z,22.82
2017-06-28T13:19:45.784Z,22.57
2017-06-28T13:21:07.874Z,22.61
2017-06-28T13:22:29.747Z,22.47
2017-06-28T13:23:51.583Z,22.64
2017-06-28T13:25:13.742Z,22.54
2017-06-28T13:26:35.911Z,22.51
2017-06-28T13:27:57.814Z,22.35
2017-06-28T13:29:19.968Z,22.24
2017-06-28T13:30:41.964Z,22.17
2017-06-28T13:32:04.484Z,22.05
2017-06-28T13:33:26.625Z,21.92
2017-06-28T13:34:48.455Z,21.82
2017-06-28T13:36:10.360Z,21.69
2017-06-28T13:37:33.290Z,21.42
2017-06-28T13:38:55.432Z,21.31
2017-06-28T13:40:17.587Z,21.46
2017-06-28T13:41:39.083Z,21.43
2017-06-28T13:43:01.521Z,21.27
2017-06-28T13:44:24.107Z,21.19
2017-06-28T13:45:46.245Z,21.24
2017-06-28T13:47:08.751Z,21.13
2017-06-28T13:48:30.933Z,21.17
2017-06-28T13:49:53.394Z,21.22
2017-06-28T13:51:15.233Z,21.13
2017-06-28T13:52:37.704Z,21.13
2017-06-28T13:54:00.342Z,21.12
2017-06-28T13:55:22.265Z,21.09
2017-06-28T13:56:44.148Z,21.07
2017-06-28T13:58:05.975Z,20.99
2017-06-28T13:59:28.392Z,21.07
2017-06-28T14:00:50.332Z,21.06
2017-06-28T14:02:12.857Z,21.07
2017-06-28T14:03:34.418Z,21.04
2017-06-28T14:04:56.890Z,20.97
2017-06-28T14:06:19.341Z,20.95
2017-06-28T14:07:40.870Z,20.92
2017-06-28T14:09:03.435Z,20.94
2017-06-28T14:10:26.189Z,20.76
2017-06-28T14:11:48.216Z,20.84
2017-06-28T14:13:10.368Z,20.85
2017-06-28T14:14:32.828Z,20.87
2017-06-28T14:15:54.640Z,20.88
2017-06-28T14:17:16.483Z,20.85
2017-06-28T14:18:38.638Z,20.89
2017-06-28T14:20:00.787Z,20.89
2017-06-28T14:21:23.600Z,20.94
2017-06-28T14:22:45.924Z,20.85
2017-06-28T14:24:08.530Z,20.89
2017-06-28T14:25:30.374Z,20.74
2017-06-28T14:26:53.277Z,20.89
2017-06-28T14:28:15.444Z,20.74
2017-06-28T14:29:37.339Z,20.73
2017-06-28T14:30:59.815Z,20.59
2017-06-28T14:32:22.695Z,20.59
2017-06-28T14:33:44.545Z,20.57
2017-06-28T14:35:07.036Z,20.5
2017-06-28T14:36:29.182Z,20.38
2017-06-28T14:37:51.209Z,20.38
2017-06-28T14:39:13.689Z,20.36
2017-06-28T14:40:35.830Z,20.32
2017-06-28T14:41:58.064Z,20.35
2017-06-28T14:43:20.784Z,20.32
2017-06-28T14:44:42.704Z,20.33
2017-06-28T14:46:05.183Z,20.31
2017-06-28T14:47:27.071Z,20.29
2017-06-28T14:48:48.995Z,20.32
2017-06-28T14:50:11.164Z,20.32
2017-06-28T14:51:33.634Z,20.33
2017-06-28T14:52:55.770Z,20.31
2017-06-28T14:54:17.550Z,20.39
2017-06-28T14:55:39.065Z,20.36
2017-06-28T14:57:01.580Z,20.42
2017-06-28T14:58:22.782Z,20.55
2017-06-28T14:59:44.926Z,20.47
2017-06-28T15:01:06.483Z,20.52
2017-06-28T15:02:28.706Z,20.43
2017-06-28T15:03:50.852Z,20.52
2017-06-28T15:05:13.643Z,20.55
2017-06-28T15:06:35.802Z,20.52
2017-06-28T15:07:57.954Z,20.43
2017-06-28T15:09:19.823Z,20.41
2017-06-28T15:10:42.444Z,20.31
2017-06-28T15:12:04.911Z,20.31
2017-06-28T15:13:26.692Z,20.14
2017-06-28T15:14:49.487Z,20.26
2017-06-28T15:16:12.222Z,20.17
2017-06-28T15:17:34.382Z,20.33
2017-06-28T15:18:56.902Z,20.35
2017-06-28T15:20:19.364Z,20.2
2017-06-28T15:21:41.884Z,20.23
2017-06-28T15:23:04.364Z,20.2
2017-06-28T15:24:25.883Z,20.32
2017-06-28T15:25:48.014Z,20.24
2017-06-28T15:27:10.626Z,20.29
2017-06-28T15:28:32.773Z,20.2
2017-06-28T15:29:55.261Z,20.17
2017-06-28T15:31:17.440Z,20.29
2017-06-28T15:32:40.219Z,20.32
2017-06-28T15:34:02.814Z,20.51
2017-06-28T15:35:25.303Z,20.52
2017-06-28T15:36:47.593Z,20.67
2017-06-28T15:38:10.419Z,20.76
2017-06-28T15:39:32.587Z,20.74
2017-06-28T15:40:55.053Z,20.58
2017-06-28T15:42:17.598Z,20.55
2017-06-28T15:43:40.044Z,20.48
2017-06-28T15:45:02.517Z,20.47
2017-06-28T15:46:25.125Z,20.36
2017-06-28T15:47:47.613Z,20.29
2017-06-28T15:49:10.703Z,20.38
2017-06-28T15:50:32.934Z,20.33
2017-06-28T15:51:55.394Z,20.33
2017-06-28T15:53:17.560Z,20.33
2017-06-28T15:54:39.390Z,20.33
2017-06-28T15:56:00.607Z,20.29
2017-06-28T15:57:23.113Z,20.36
2017-06-28T15:58:45.288Z,20.35
2017-06-28T16:00:08.069Z,20.21
2017-06-28T16:01:30.213Z,20.11
2017-06-28T16:02:52.669Z,20.06
2017-06-28T16:04:14.527Z,20.08
2017-06-28T16:05:37.365Z,19.99
2017-06-28T16:06:59.494Z,19.96
2017-06-28T16:08:21.707Z,20.01
2017-06-28T16:09:43.973Z,20.02
2017-06-28T16:11:06.825Z,20.13
2017-06-28T16:12:29.306Z,20.05
2017-06-28T16:13:51.452Z,20.11
2017-06-28T16:15:13.285Z,20.02
2017-06-28T16:16:35.478Z,20.13
2017-06-28T16:17:57.955Z,20.2
2017-06-28T16:19:20.423Z,20.48
2017-06-28T16:20:42.567Z,20.61
2017-06-28T16:22:05.495Z,20.8
2017-06-28T16:23:27.959Z,21.01
2017-06-28T16:24:50.176Z,21.17
2017-06-28T16:26:12.647Z,21.31
2017-06-28T16:27:35.484Z,21.52
2017-06-28T16:28:57.744Z,21.61
2017-06-28T16:30:20.220Z,21.71
2017-06-28T16:31:42.714Z,21.72
2017-06-28T16:33:05.551Z,21.83
2017-06-28T16:34:28.015Z,21.82
2017-06-28T16:35:50.337Z,21.88
2017-06-28T16:37:12.577Z,21.71
2017-06-28T16:38:35.222Z,21.68
2017-06-28T16:39:57.533Z,21.71
2017-06-28T16:41:20.030Z,21.83
2017-06-28T16:42:41.864Z,21.8
2017-06-28T16:44:04.010Z,21.58
2017-06-28T16:45:26.182Z,21.42
2017-06-28T16:46:48.024Z,21.44
2017-06-28T16:48:10.513Z,21.46
2017-06-28T16:49:32.979Z,21.42
2017-06-28T16:50:54.817Z,21.38
2017-06-28T16:52:17.286Z,21.43
2017-06-28T16:53:39.124Z,21.53
2017-06-28T16:55:01.309Z,21.67
2017-06-28T16:56:23.909Z,21.68
2017-06-28T16:57:45.744Z,21.69
2017-06-28T16:59:07.907Z,21.62
2017-06-28T17:00:30.226Z,21.74
2017-06-28T17:01:52.689Z,21.75
2017-06-28T17:03:14.853Z,21.71
2017-06-28T17:04:37.343Z,21.71
2017-06-28T17:05:59.599Z,21.65
2017-06-28T17:07:21.753Z,21.79
2017-06-28T17:08:43.632Z,21.71
2017-06-28T17:10:05.803Z,21.86
2017-06-28T17:11:28.187Z,22
2017-06-28T17:12:50.641Z,22.09
2017-06-28T17:14:13.197Z,22.25
2017-06-28T17:15:35.451Z,22.17
2017-06-28T17:16:57.597Z,22.2
2017-06-28T17:18:19.897Z,22.37
2017-06-28T17:19:41.430Z,22.35
2017-06-28T17:21:03.965Z,22.31
2017-06-28T17:22:26.413Z,22.35
2017-06-28T17:23:48.303Z,22.27
2017-06-28T17:25:09.814Z,22.21
2017-06-28T17:26:32.253Z,22.02
2017-06-28T17:27:54.790Z,21.96
2017-06-28T17:29:16.785Z,21.94
2017-06-28T17:30:38.957Z,21.9
2017-06-28T17:32:00.516Z,21.9
2017-06-28T17:33:22.965Z,21.96
2017-06-28T17:34:45.414Z,21.84
2017-06-28T17:36:07.921Z,21.69
2017-06-28T17:37:29.805Z,21.68
2017-06-28T17:38:52.648Z,21.69
2017-06-28T17:40:14.804Z,21.67
2017-06-28T17:41:36.941Z,21.72
2017-06-28T17:42:58.452Z,21.65
2017-06-28T17:44:20.952Z,21.62
2017-06-28T17:45:42.893Z,21.59
2017-06-28T17:47:04.421Z,21.59
2017-06-28T17:48:26.604Z,21.61